Latest Weather Observations for Canberra

IDN60801

Issued at 4:35 pm EST Wednesday 1 October 2014 (issued every 30 minutes, with the page automatically refreshed every 10 minutes)

About weather observations | Map of weather stations | Latest weather observations for NSW | Other Formats
Station Details ID: 070351 Name: CANBERRA AIRPORT Lat: -35.31 Lon: 149.20 Height: 577.05 m
Data from the previous 72 hours. | See also: Recent months at Canberra
Date/Time
EST
Temp
°C
App
Temp
°C
Dew
Point
Rel
Hum
%
Delta-T
°C
Wind Press
QNH
hPa
Press
MSL
hPa
Rain
since 9 am
mm
Dir
 
Spd
km/h
Gust
km/h
Spd
kts
Gust
kts
01/04:30pm 15.2 9.3 1.7 40 6.1 N 22 30 12 16 1019.0 - 0.0
01/04:00pm 15.1 9.5 -0.2 35 6.6 N 19 22 10 12 1019.0 - 0.0
01/03:30pm 15.3 9.2 0.7 37 6.5 N 22 32 12 17 1018.6 - 0.0
01/03:00pm 15.9 8.8 -1.2 31 7.3 N 26 32 14 17 1018.4 1017.9 0.0
01/02:30pm 16.8 12.2 -4.4 23 8.6 SSW 11 19 6 10 1018.4 - 0.0
01/02:00pm 16.1 10.6 -5.0 23 8.4 S 15 26 8 14 1018.5 - 0.0
01/01:30pm 14.9 10.4 -7.2 21 8.3 WNW 9 19 5 10 1018.8 - 0.0
01/01:00pm 15.1 9.3 -4.8 25 7.8 S 17 26 9 14 1018.9 - 0.0
01/12:30pm 16.0 10.8 -2.5 28 7.7 SSE 15 26 8 14 1019.1 - 0.0
01/12:00pm 15.0 9.6 -4.8 25 7.8 S 15 24 8 13 1019.1 1018.7 0.0
01/11:30am 13.8 9.8 -8.1 21 7.9 SSW 6 11 3 6 1019.1 - 0.0
01/11:00am 13.3 8.1 -6.3 25 7.3 SSW 13 22 7 12 1019.3 - 0.0
01/10:30am 13.3 8.0 -3.9 30 6.8 SSW 15 26 8 14 1019.1 - 0.0
01/10:00am 12.7 6.8 -5.3 28 6.8 S 17 24 9 13 1018.9 - 0.0
01/09:30am 11.5 6.8 -5.4 30 6.3 SW 11 22 6 12 1018.7 - 0.0
01/09:00am 11.6 6.1 -2.2 38 5.5 W 17 26 9 14 1018.6 1018.1 0.0
01/08:30am 10.2 5.0 -2.8 40 5.1 W 15 20 8 11 1018.6 - 0.0
01/08:00am 9.3 4.5 -2.3 44 4.5 W 13 24 7 13 1018.4 - 0.0
01/07:30am 8.5 4.0 -3.3 43 4.5 W 11 19 6 10 1018.0 - 0.0
01/07:00am 8.0 3.5 -2.9 46 4.1 W 11 19 6 10 1017.8 - 0.0
01/06:30am 6.4 1.9 -3.0 51 3.5 WNW 11 15 6 8 1017.4 - 0.0
01/06:00am 5.7 0.8 -3.6 51 3.4 WNW 13 22 7 12 1016.6 1016.1 0.0
01/05:30am 6.0 -0.1 -3.6 50 3.5 NW 19 26 10 14 1015.7 - 0.0
01/05:00am 7.2 1.6 -3.1 48 3.9 W 17 28 9 15 1015.3 - 0.0
01/04:30am 7.3 2.2 -1.9 52 3.6 W 15 22 8 12 1014.8 - 0.0
01/04:00am 7.9 0.9 -3.3 45 4.2 W 24 37 13 20 1014.5 - 0.0
01/03:30am 8.4 2.7 -4.1 41 4.6 WSW 17 24 9 13 1013.8 - 0.0
01/03:00am 9.6 1.6 -5.5 34 5.5 WSW 28 37 15 20 1013.2 1012.7 0.0
01/02:30am 10.0 2.4 -5.1 34 5.6 W 26 37 14 20 1012.4 - 0.0
01/02:00am 11.2 4.3 -2.9 37 5.6 WNW 24 32 13 17 1011.9 - 0.0
01/01:30am 11.6 3.9 -2.6 37 5.7 WNW 28 44 15 24 1011.4 - 0.0
01/01:00am 12.8 5.9 -0.1 41 5.5 WNW 26 35 14 19 1011.9 - 0.0
01/12:41am 13.3 6.2 1.6 45 5.2 WNW 28 52 15 28 1011.9 - 0.0
01/12:30am 13.7 6.0 2.3 46 5.2 W 32 41 17 22 1011.7 - 0.0
01/12:04am 14.3 7.3 4.3 51 4.8 W 30 48 16 26 1011.2 - 0.0
01/12:00am 14.4 6.9 4.4 51 4.8 W 33 48 18 26 1011.0 1011.2 0.0
 
Date/Time
EST
Temp
°C
App
Temp
°C
Dew
Point
Rel
Hum
%
Delta-T
°C
Wind Press
QNH
hPa
Press
MSL
hPa
Rain
since 9 am
mm
Dir
 
Spd
km/h
Gust
km/h
Spd
kts
Gust
kts
30/11:43pm 14.9 8.4 4.6 50 5.0 W 28 46 15 25 1010.7 - 0.0
30/11:30pm 15.4 7.6 4.8 49 5.1 WNW 35 52 19 28 1010.4 - 0.0
30/11:00pm 16.6 8.4 4.6 45 5.8 WNW 37 59 20 32 1009.5 - 0.0
30/10:51pm 17.0 9.2 3.0 39 6.6 WNW 33 59 18 32 1009.3 - 0.0
30/10:30pm 16.8 10.2 2.0 37 6.8 NW 26 33 14 18 1008.9 - 0.0
30/10:00pm 17.7 10.7 1.7 34 7.4 NW 28 41 15 22 1008.5 - 0.0
30/09:30pm 17.8 10.3 1.3 33 7.6 NW 30 37 16 20 1008.9 - 0.0
30/09:00pm 17.9 11.6 1.8 34 7.5 NW 24 28 13 15 1009.4 1009.6 0.0
30/08:30pm 16.9 11.0 1.8 36 7.0 NW 22 28 12 15 1009.6 - 0.0
30/08:00pm 17.1 11.2 1.5 35 7.2 NW 22 26 12 14 1009.7 - 0.0
30/07:30pm 17.6 11.4 2.0 35 7.3 NW 24 35 13 19 1009.7 - 0.0
30/07:00pm 18.1 11.1 2.0 34 7.5 NW 28 33 15 18 1009.6 - 0.0
30/06:30pm 19.0 11.2 2.0 32 8.0 NW 32 44 17 24 1009.5 - 0.0
30/06:00pm 20.2 12.1 1.1 28 8.9 NW 33 52 18 28 1009.4 1009.6 0.0
30/05:37pm 20.6 11.0 1.0 27 9.2 NW 41 67 22 36 1009.3 - 0.0
30/05:30pm 20.8 10.6 1.1 27 9.2 NW 44 57 24 31 1009.4 - 0.0
30/05:00pm 21.5 13.3 2.7 29 9.1 WNW 35 54 19 29 1009.3 - 0.0
30/04:30pm 22.1 12.4 3.7 30 9.2 WNW 44 63 24 34 1009.2 - 0.0
30/04:04pm 22.3 13.1 5.3 33 8.7 NW 43 61 23 33 1009.1 - 0.0
30/04:00pm 22.2 13.7 5.2 33 8.7 NW 39 54 21 29 1009.1 - 0.0
30/03:30pm 22.8 14.6 6.6 35 8.5 WNW 39 54 21 29 1009.3 - 0.0
30/03:08pm 22.8 15.6 5.7 33 8.9 WNW 33 52 18 28 1009.5 - 0.0
30/03:00pm 22.9 16.2 7.4 37 8.3 WNW 32 43 17 23 1009.8 1010.0 0.0
30/02:30pm 22.9 15.1 6.6 35 8.6 WNW 37 57 20 31 1010.2 - 0.0
30/02:00pm 23.3 15.5 6.6 34 8.8 WNW 37 56 20 30 1010.7 - 0.0
30/01:40pm 23.2 14.6 4.7 30 9.4 WNW 39 57 21 31 1010.7 - 0.0
30/01:30pm 23.5 14.7 5.4 31 9.4 WNW 41 54 22 29 1010.9 - 0.0
30/01:11pm 23.7 16.1 5.6 31 9.4 WNW 35 57 19 31 1011.0 - 0.0
30/01:00pm 23.4 15.7 5.3 31 9.4 WNW 35 50 19 27 1011.1 - 0.0
30/12:41pm 23.3 14.3 6.6 34 8.8 NW 43 61 23 33 1011.3 - 0.0
30/12:30pm 23.0 14.2 5.4 32 9.1 NW 41 56 22 30 1011.4 - 0.0
30/12:00pm 23.0 15.1 6.3 34 8.8 NW 37 52 20 28 1011.9 1012.0 0.0
30/11:30am 23.2 16.2 8.5 39 8.0 NW 35 54 19 29 1012.1 - 0.0
30/11:23am 22.4 15.0 6.6 36 8.3 NW 35 54 19 29 1012.2 - 0.0
30/11:00am 21.7 15.2 8.2 42 7.3 NNW 32 41 17 22 1012.4 - 0.0
30/10:30am 21.4 14.7 8.3 43 7.1 NW 33 46 18 25 1012.9 - 0.0
30/10:00am 20.7 14.3 8.4 45 6.6 NNW 32 37 17 20 1013.1 - 0.0
30/09:30am 19.9 13.3 7.9 46 6.4 NNW 32 39 17 21 1013.5 - 0.0
30/09:00am 19.0 13.2 7.8 48 5.9 NNW 28 33 15 18 1013.7 1013.9 0.0
30/08:30am 17.9 13.8 8.7 55 4.9 NW 20 30 11 16 1013.9 - 0.0
30/08:00am 13.8 13.2 9.0 73 2.5 ENE 2 7 1 4 1013.9 - 0.0
30/07:30am 10.2 9.9 8.5 89 0.9 CALM 0 0 0 0 1014.0 - 0.0
30/07:00am 7.5 6.8 6.9 96 0.3 CALM 0 0 0 0 1014.1 - 0.0
30/06:30am 5.6 4.5 5.3 98 0.1 CALM 0 0 0 0 1014.2 - 0.0
30/06:00am 3.4 1.4 2.4 93 0.4 E 2 7 1 4 1014.0 1014.2 0.0
30/05:30am 4.9 3.7 4.5 97 0.2 CALM 0 0 0 0 1013.8 - 0.0
30/05:00am 5.1 3.9 4.5 96 0.3 CALM 0 0 0 0 1013.7 - 0.0
30/04:30am 4.7 2.3 4.1 96 0.3 E 6 7 3 4 1013.7 - 0.0
30/04:00am 5.2 2.8 4.2 93 0.4 N 6 7 3 4 1013.5 - 0.0
30/03:30am 5.1 2.9 3.6 90 0.6 ESE 4 9 2 5 1013.8 - 0.0
30/03:00am 6.1 3.7 5.4 95 0.3 S 7 7 4 4 1013.9 1014.1 0.0
30/02:30am 5.3 3.9 3.8 90 0.7 CALM 0 0 0 0 1014.1 - 0.0
30/02:00am 7.3 6.0 6.1 92 0.6 N 2 6 1 3 1014.3 - 0.0
30/01:30am 6.6 5.5 4.9 89 0.8 CALM 0 0 0 0 1014.7 - 0.0
30/01:00am 7.8 7.0 6.3 90 0.7 CALM 0 0 0 0 1014.8 - 0.0
30/12:30am 8.0 7.2 6.3 89 0.8 CALM 0 4 0 2 1014.9 - 0.0
30/12:00am 7.8 6.4 5.6 86 1.0 S 2 6 1 3 1015.2 1015.5 0.0
 
Date/Time
EST
Temp
°C
App
Temp
°C
Dew
Point
Rel
Hum
%
Delta-T
°C
Wind Press
QNH
hPa
Press
MSL
hPa
Rain
since 9 am
mm
Dir
 
Spd
km/h
Gust
km/h
Spd
kts
Gust
kts
29/11:30pm 8.5 6.4 6.5 87 1.0 S 7 9 4 5 1015.4 - 0.0
29/11:00pm 8.2 7.1 5.1 81 1.4 CALM 0 0 0 0 1015.7 - 0.0
29/10:30pm 9.1 8.2 6.2 82 1.4 CALM 0 0 0 0 1015.8 - 0.0
29/10:00pm 8.5 6.2 4.7 77 1.7 NNW 6 7 3 4 1015.9 - 0.0
29/09:30pm 10.3 9.3 5.7 73 2.2 CALM 0 0 0 0 1016.2 - 0.0
29/09:00pm 11.2 10.2 5.7 69 2.6 CALM 0 0 0 0 1016.1 1016.3 0.0
29/08:30pm 12.4 11.0 7.3 71 2.5 NE 4 9 2 5 1016.2 - 0.0
29/08:00pm 12.9 12.2 7.1 68 2.9 CALM 0 0 0 0 1016.0 - 0.0
29/07:30pm 13.0 10.7 4.9 58 3.9 N 6 7 3 4 1015.7 - 0.0
29/07:00pm 16.2 14.2 7.2 55 4.6 NNW 7 9 4 5 1015.6 - 0.0
29/06:30pm 16.9 13.5 7.8 55 4.7 NNW 15 20 8 11 1015.3 - 0.0
29/06:00pm 19.3 16.0 8.0 48 6.0 N 15 20 8 11 1015.1 1015.4 0.0
29/05:30pm 20.4 16.2 8.1 45 6.6 NNW 20 30 11 16 1014.8 - 0.0
29/05:00pm 21.5 15.7 8.1 42 7.2 NNW 28 37 15 20 1014.5 - 0.0
29/04:30pm 22.3 16.4 7.7 39 7.8 NNW 28 35 15 19 1014.1 - 0.0
29/04:00pm 22.9 16.2 7.4 37 8.3 NNW 32 39 17 21 1013.9 - 0.0
29/03:30pm 23.1 16.5 7.6 37 8.3 NNW 32 39 17 21 1013.8 - 0.0
29/03:00pm 23.2 17.1 8.1 38 8.2 NNW 30 41 16 22 1013.5 1013.7 0.0
29/02:30pm 23.4 17.7 8.3 38 8.2 NNW 28 39 15 21 1013.7 - 0.0
29/02:00pm 23.3 17.0 7.4 36 8.5 NNW 30 43 16 23 1013.8 - 0.0
29/01:30pm 22.8 16.0 7.8 38 8.1 N 33 43 18 23 1013.9 - 0.0
29/01:00pm 22.9 16.7 7.8 38 8.1 NNW 30 41 16 22 1014.1 - 0.0
29/12:30pm 22.7 16.3 8.4 40 7.8 NNW 32 37 17 20 1014.2 - 0.0
29/12:00pm 22.4 16.9 7.4 38 8.0 NNW 26 35 14 19 1014.5 1014.7 0.0
29/11:30am 22.2 16.9 8.3 41 7.5 NNW 26 35 14 19 1014.7 - 0.0
29/11:00am 21.3 15.0 7.5 41 7.3 NNW 30 41 16 22 1014.8 - 0.0
29/10:30am 20.4 15.4 6.4 40 7.2 N 22 33 12 18 1015.2 - 0.0
29/10:00am 20.1 15.6 6.8 42 6.9 NNW 20 37 11 20 1015.2 - 0.0
29/09:30am 19.2 13.4 6.3 43 6.6 NW 26 37 14 20 1015.3 - 0.0
29/09:00am 19.0 12.9 6.8 45 6.3 NW 28 35 15 19 1015.1 1015.4 0.0
29/08:30am 17.7 10.6 5.3 44 6.2 NW 32 41 17 22 1014.6 - 0.0
29/08:00am 17.1 9.3 5.1 45 5.9 NW 35 44 19 24 1014.3 - 0.0
29/07:30am 16.6 9.8 5.3 47 5.6 NW 30 43 16 23 1014.6 - 0.0
29/07:00am 15.4 8.2 4.8 49 5.1 NW 32 39 17 21 1014.8 - 0.0
29/06:30am 14.2 7.7 4.8 53 4.5 NW 28 35 15 19 1015.3 - 0.0
29/06:00am 13.4 7.6 4.6 55 4.2 NW 24 33 13 18 1014.9 1015.1 0.0
29/05:30am 13.8 8.1 4.7 54 4.3 NW 24 33 13 18 1014.3 - 0.0
29/05:00am 13.8 8.9 4.9 55 4.3 WNW 20 32 11 17 1013.7 - 0.0
29/04:30am 13.6 8.2 4.7 55 4.2 WNW 22 32 12 17 1013.7 - 0.0
29/04:00am 14.1 9.1 4.7 53 4.5 WNW 20 32 11 17 1013.7 - 0.0
29/03:30am 14.1 9.3 4.9 54 4.4 NW 19 26 10 14 1013.8 - 0.0
29/03:00am 13.5 8.2 4.9 56 4.1 NNW 22 30 12 16 1014.2 1014.4 0.0
29/02:30am 13.5 8.9 5.4 58 3.9 NNW 19 24 10 13 1014.6 - 0.0
29/02:00am 13.3 7.8 5.7 60 3.7 NNW 24 32 13 17 1014.9 - 0.0
29/01:30am 12.6 10.1 6.4 66 3.0 WNW 9 13 5 7 1015.3 - 0.0
29/01:00am 11.8 9.4 5.4 65 3.1 NW 7 9 4 5 1015.7 - 0.0
29/12:30am 10.2 9.3 6.2 76 1.9 CALM 0 0 0 0 1016.0 - 0.0
29/12:00am 10.8 9.5 6.0 72 2.3 NE 2 7 1 4 1016.4 1016.6 0.0
 
Date/Time
EST
Temp
°C
App
Temp
°C
Dew
Point
Rel
Hum
%
Delta-T
°C
Wind Press
QNH
hPa
Press
MSL
hPa
Rain
since 9 am
mm
Dir
 
Spd
km/h
Gust
km/h
Spd
kts
Gust
kts
28/11:30pm 11.0 8.9 6.0 71 2.4 NE 6 7 3 4 1016.4 - 0.0
28/11:00pm 10.9 8.3 5.9 71 2.4 NNE 9 9 5 5 1016.4 - 0.0
28/10:30pm 10.0 7.6 5.4 73 2.2 ESE 7 9 4 5 1016.6 - 0.0
28/10:00pm 11.8 10.3 5.2 64 3.1 NW 2 7 1 4 1016.5 - 0.0
28/09:30pm 14.1 10.0 6.2 59 3.9 NNW 17 22 9 12 1016.2 - 0.0
28/09:00pm 15.6 11.1 7.1 57 4.3 N 20 26 11 14 1016.2 1016.4 0.0
28/08:30pm 15.5 11.4 7.8 60 4.0 N 19 22 10 12 1016.5 - 0.0
28/08:00pm 15.2 11.6 8.4 64 3.5 N 17 22 9 12 1016.8 - 0.0
28/07:30pm 15.6 12.1 8.6 63 3.7 N 17 19 9 10 1016.8 - 0.0
28/07:00pm 15.6 12.8 8.6 63 3.7 NNW 13 17 7 9 1016.5 - 0.0
28/06:30pm 16.0 12.4 8.5 61 3.9 NW 17 19 9 10 1016.4 - 0.0
28/06:00pm 17.6 13.1 8.5 55 4.8 NW 22 30 12 16 1016.1 1016.3 0.0
28/05:30pm 18.3 12.7 8.6 53 5.2 NW 28 35 15 19 1015.9 - 0.0
28/05:00pm 19.4 13.6 9.6 53 5.4 NW 30 39 16 21 1015.7 - 0.0

Other Formats:

Comma delimited format used in spreadsheet applications
http://www.bom.gov.au/fwo/IDN60801/IDN60801.94926.axf

JavaScript Object Notation format (JSON) in row-major order
http://www.bom.gov.au/fwo/IDN60801/IDN60801.94926.json